Boone, CO

6:03 AM MDT on August 31, 2014 (GMT -0600)
Butts Army Air Field | Change Station
CLOSE
Current Station
Airport
Location: Fort Carson,
Elevation: 5869 ft
Nearby Weather Stations

Elev 5869 ft 38.68 °N, 104.76 °W | Updated 5 minutes ago

Clear
Clear
59 °F
Feels Like 59 °F
N
6
Wind Variable Wind from SW

Today
High -- | Low -- °F
--% Chance of Precip.
Yesterday
High -- | Low -- °F
Precip. -- in
6:25 AM 7:27 PM
Waxing Crescent, 30% visible
Pressure 29.81 in
Visibility 10.0 miles
Clouds Clear
Dew Point 43 °F
Humidity 56%
Rainfall 0.00 in
Snow Depth Not available.
UV 0 out of 12
Pollen 9.70 out of 12
Air Quality Not available.
Flu Activity Not available.
METAR KFCS 311158Z AUTO 22005KT 10SM CLR 15/06 A2997 RMK AO2 SLP093 T01500062 10173 20133 58006

More Conditions Fewer Conditions

Pressure 29.81 in
Visibility 10.0 miles
Clouds Clear
Dew Point 43 °F
Humidity 56%
Rainfall 0.00 in
Snow Depth Not available.
UV 0 out of 12
Pollen 9.70 out of 12
Air Quality Not available.
Flu Activity Not available.
METAR KFCS 311158Z AUTO 22005KT 10SM CLR 15/06 A2997 RMK AO2 SLP093 T01500062 10173 20133 58006

More Conditions Fewer Conditions

10-Day Weather Forecast

Almanac

Astronomy

Aug. 31, 2014 Rise Set
Actual Time 6:25 AM MDT 7:27 PM MDT
Civil Twilight 5:58 AM MDT 7:55 PM MDT
Nautical Twilight 5:26 AM MDT 8:27 PM MDT
Astronomical Twilight 4:52 AM MDT 9:00 PM MDT
Moon 12:09 PM MDT 10:50 PM MDT
Length of Visible Light 13h 56m
Length of Day
13h 02m
Tomorrow will be 2m 21s shorter.
Waxing Crescent, 30% of the Moon is Illuminated
Today
Waxing Crescent
Sep 2
First Quarter
Sep 8
Full
Sep 15
Last Quarter
Sep 24
New

Today's Extremes

State Highs State Lows

Community

WunderPhotos

Upload Photos

1,748,853 photos uploaded!

Nearby

Snow Depth

Station Depth Elevation
Medano Pass 1 in 9620 ft
South Colony 0 in 10800 ft
Ute Creek 0 in 10650 ft
Trinchera 0 in 10860 ft
Whiskey Creek 0 in 10220 ft

Earthquake Activity

City Distance Mag. Time & Date
Trinidad, Colorado 92 miles 2.7 4:20 AM MDT
2014-08-31
Minimum magnitude displayed is 2.5.

Coastal Water Temperatures

Place Temperature
No Stations Reporting

Nearby Weather Stations